createdAt,value
2022-09-30T00:00:51.682Z,938.65
2022-09-30T00:01:53.255Z,1085.93
2022-09-30T00:02:56.342Z,1114.55
2022-09-30T00:03:58.180Z,1125.35
2022-09-30T00:04:59.704Z,1154.68
2022-09-30T00:06:08.182Z,761.88
2022-09-30T00:07:10.429Z,713.53
2022-09-30T00:08:11.919Z,715.55
2022-09-30T00:09:13.893Z,641.67
2022-09-30T00:10:15.628Z,552.83
2022-09-30T00:11:19.490Z,683.90
2022-09-30T00:12:20.999Z,750.25
2022-09-30T00:13:22.494Z,900.90
2022-09-30T00:14:24.556Z,843.75
2022-09-30T00:15:26.220Z,948.10
2022-09-30T00:16:30.631Z,913.58
2022-09-30T00:17:32.175Z,1051.88
2022-09-30T00:18:34.999Z,1124.93
2022-09-30T00:19:36.500Z,944.28
2022-09-30T00:20:37.977Z,926.25
2022-09-30T00:21:39.993Z,1010.47
2022-09-30T00:22:41.534Z,1130.03
2022-09-30T00:23:43.930Z,1217.72
2022-09-30T00:24:45.436Z,1220.97
2022-09-30T00:25:47.318Z,1075.68
2022-09-30T00:26:48.838Z,1130.65
2022-09-30T00:27:50.295Z,940.90
2022-09-30T00:28:53.781Z,1065.82
2022-09-30T00:29:55.238Z,1029.35
2022-09-30T00:30:58.910Z,815.75
2022-09-30T00:32:00.703Z,801.75
2022-09-30T00:33:02.249Z,763.88
2022-09-30T00:34:05.230Z,824.75
2022-09-30T00:35:07.398Z,794.33
2022-09-30T00:36:10.009Z,847.55
2022-09-30T00:37:11.522Z,842.10
2022-09-30T00:38:12.988Z,854.92
2022-09-30T00:39:16.499Z,883.22
2022-09-30T00:40:19.392Z,819.03
2022-09-30T00:41:20.884Z,693.00
2022-09-30T00:42:22.413Z,773.72
2022-09-30T00:43:40.245Z,820.00
2022-09-30T00:44:47.684Z,976.22
2022-09-30T00:45:54.128Z,713.63
2022-09-30T00:46:56.233Z,639.58
2022-09-30T00:48:05.832Z,572.30
2022-09-30T00:49:19.795Z,465.40
2022-09-30T00:50:30.478Z,570.28
2022-09-30T00:51:35.640Z,565.72
2022-09-30T00:52:37.681Z,779.00
2022-09-30T00:53:46.478Z,888.63
2022-09-30T00:54:48.030Z,885.72
2022-09-30T00:55:54.647Z,804.95
2022-09-30T00:57:01.397Z,899.40
2022-09-30T00:58:05.904Z,724.40
2022-09-30T00:59:10.280Z,889.92
2022-09-30T01:00:11.917Z,821.70
2022-09-30T01:01:13.480Z,894.55
2022-09-30T01:02:15.093Z,738.47
2022-09-30T01:03:17.552Z,936.00
2022-09-30T01:04:23.240Z,889.33
2022-09-30T01:05:26.406Z,957.53
2022-09-30T01:06:28.447Z,885.10
2022-09-30T01:07:30.122Z,964.17
2022-09-30T01:08:35.396Z,1025.60
2022-09-30T01:09:40.364Z,611.72
2022-09-30T01:10:41.892Z,757.00
2022-09-30T01:11:43.483Z,706.90
2022-09-30T01:12:45.037Z,669.72
2022-09-30T01:13:51.038Z,643.58
2022-09-30T01:14:54.954Z,695.17
2022-09-30T01:16:16.924Z,491.30
2022-09-30T01:17:28.389Z,885.22
2022-09-30T01:20:09.019Z,696.08
2022-09-30T01:21:59.406Z,732.10
2022-09-30T01:23:22.760Z,662.58
2022-09-30T01:24:48.113Z,624.70
2022-09-30T01:26:37.533Z,824.55
2022-09-30T01:28:07.913Z,930.63
2022-09-30T01:29:42.446Z,928.90
2022-09-30T01:30:59.937Z,772.72
2022-09-30T01:32:08.791Z,753.55
2022-09-30T01:33:21.183Z,734.83
2022-09-30T01:34:38.050Z,812.13
2022-09-30T01:35:53.709Z,800.38
2022-09-30T01:37:08.058Z,773.65
2022-09-30T01:38:14.096Z,867.08
2022-09-30T01:39:26.745Z,805.28
2022-09-30T01:40:37.700Z,1199.90
2022-09-30T01:41:44.435Z,1001.08
2022-09-30T01:42:53.348Z,868.78
2022-09-30T01:44:02.441Z,777.35
2022-09-30T01:45:10.057Z,1109.32
2022-09-30T01:46:23.089Z,823.78
2022-09-30T01:47:26.488Z,1061.85
2022-09-30T01:48:39.281Z,836.45
2022-09-30T01:49:46.357Z,797.35
2022-09-30T01:50:52.564Z,995.83
2022-09-30T01:52:02.638Z,878.40
2022-09-30T01:53:10.861Z,1022.83
2022-09-30T01:54:20.248Z,905.00
2022-09-30T01:55:28.046Z,906.17
2022-09-30T01:56:35.155Z,836.20
2022-09-30T01:57:45.492Z,1085.50
2022-09-30T01:58:54.036Z,864.67
2022-09-30T02:00:02.752Z,972.17
2022-09-30T02:01:08.954Z,913.22
2022-09-30T02:02:17.136Z,877.30
2022-09-30T02:03:23.188Z,962.50
2022-09-30T02:04:31.153Z,865.13
2022-09-30T02:05:38.683Z,1024.95
2022-09-30T02:06:45.586Z,1021.65
2022-09-30T02:07:51.843Z,962.20
2022-09-30T02:08:57.737Z,878.17
2022-09-30T02:10:03.113Z,957.50
2022-09-30T02:11:09.416Z,966.65
2022-09-30T02:12:15.437Z,1012.10
2022-09-30T02:13:19.834Z,850.28
2022-09-30T02:14:27.890Z,894.75
2022-09-30T02:15:39.695Z,719.80
2022-09-30T02:16:46.130Z,710.25
2022-09-30T02:17:52.795Z,592.65
2022-09-30T02:18:58.718Z,690.42
2022-09-30T02:20:03.967Z,564.75
2022-09-30T02:21:08.686Z,492.25
2022-09-30T02:22:14.085Z,590.03
2022-09-30T02:23:19.220Z,563.15
2022-09-30T02:24:22.765Z,695.85
2022-09-30T02:25:29.554Z,546.70
2022-09-30T02:26:36.368Z,625.97
2022-09-30T02:27:45.251Z,717.42
2022-09-30T02:28:51.164Z,766.50
2022-09-30T02:29:56.451Z,742.75
2022-09-30T02:31:00.782Z,661.60
2022-09-30T02:32:05.742Z,799.95
2022-09-30T02:33:12.042Z,670.38
2022-09-30T02:34:18.476Z,735.83
2022-09-30T02:35:25.007Z,692.42
2022-09-30T02:36:31.994Z,622.78
2022-09-30T02:37:38.277Z,411.35
2022-09-30T02:38:44.765Z,502.85
2022-09-30T02:39:50.940Z,593.78
2022-09-30T02:40:56.835Z,557.05
2022-09-30T02:42:05.586Z,577.03
2022-09-30T02:43:08.836Z,575.80
2022-09-30T02:44:10.373Z,566.53
2022-09-30T02:45:15.535Z,493.17
2022-09-30T02:46:25.532Z,534.35
2022-09-30T02:47:32.082Z,612.05
2022-09-30T02:48:42.977Z,622.03
2022-09-30T02:49:49.822Z,766.90
2022-09-30T02:50:54.573Z,675.67
2022-09-30T02:52:11.791Z,628.38
2022-09-30T02:53:23.522Z,597.70
2022-09-30T02:54:34.640Z,763.63
2022-09-30T02:55:47.431Z,660.50
2022-09-30T02:56:53.372Z,770.22
2022-09-30T02:58:00.684Z,768.55
2022-09-30T02:59:02.138Z,728.85
2022-09-30T03:00:10.353Z,996.50
2022-09-30T03:01:16.399Z,735.10
2022-09-30T03:02:18.581Z,534.42
2022-09-30T03:03:22.750Z,644.40
2022-09-30T03:04:30.704Z,757.95
2022-09-30T03:05:32.133Z,543.88
2022-09-30T03:06:35.880Z,597.92
2022-09-30T03:07:38.146Z,735.60
2022-09-30T03:08:39.634Z,718.30
2022-09-30T03:09:41.113Z,744.17
2022-09-30T03:10:43.299Z,702.22
2022-09-30T03:11:46.336Z,334.17
2022-09-30T03:13:01.942Z,630.90
2022-09-30T03:14:20.552Z,634.85
2022-09-30T03:15:34.814Z,511.55
2022-09-30T03:16:55.584Z,504.42
2022-09-30T03:18:13.898Z,586.45
2022-09-30T03:19:35.031Z,460.65
2022-09-30T03:20:46.112Z,421.08
2022-09-30T03:22:00.116Z,474.05
2022-09-30T03:23:24.165Z,475.42
2022-09-30T03:24:41.744Z,459.50
2022-09-30T03:25:52.878Z,509.23
2022-09-30T03:27:05.284Z,558.83
2022-09-30T03:28:17.175Z,468.40
2022-09-30T03:29:25.883Z,436.70
2022-09-30T03:30:28.266Z,353.65
2022-09-30T03:31:39.344Z,417.10
2022-09-30T03:32:52.513Z,538.80
2022-09-30T03:34:00.847Z,511.77
2022-09-30T03:35:16.255Z,486.75
2022-09-30T03:36:27.758Z,610.72
2022-09-30T03:38:43.211Z,732.05
2022-09-30T03:39:56.577Z,793.30
2022-09-30T03:41:03.917Z,621.47
2022-09-30T03:42:11.000Z,532.92
2022-09-30T03:43:19.013Z,560.95
2022-09-30T03:44:25.325Z,669.58
2022-09-30T03:45:33.658Z,675.35
2022-09-30T03:46:39.051Z,528.58
2022-09-30T03:47:44.252Z,423.40
2022-09-30T03:48:48.911Z,538.25
2022-09-30T03:49:53.894Z,557.80
2022-09-30T03:50:59.000Z,499.08
2022-09-30T03:52:06.165Z,498.13
2022-09-30T03:53:10.132Z,516.75
2022-09-30T03:54:13.432Z,506.65
2022-09-30T03:55:15.507Z,504.27
2022-09-30T03:56:24.873Z,540.88
2022-09-30T03:57:27.035Z,484.60
2022-09-30T03:58:28.461Z,432.15
2022-09-30T03:59:29.896Z,446.80
2022-09-30T04:00:31.376Z,468.77
2022-09-30T04:01:33.085Z,433.58
2022-09-30T04:02:34.610Z,404.45
2022-09-30T04:03:36.063Z,290.13
2022-09-30T04:04:37.485Z,345.33
2022-09-30T04:05:38.958Z,379.50
2022-09-30T04:06:41.769Z,328.95
2022-09-30T04:07:43.263Z,495.02
2022-09-30T04:08:44.799Z,577.60
2022-09-30T04:09:46.299Z,451.40
2022-09-30T04:10:47.732Z,556.85
2022-09-30T04:11:49.151Z,415.40
2022-09-30T04:12:53.318Z,469.27
2022-09-30T04:13:54.795Z,519.55
2022-09-30T04:14:56.223Z,531.65
2022-09-30T04:15:57.798Z,372.88
2022-09-30T04:16:59.321Z,420.35
2022-09-30T04:18:00.785Z,465.10
2022-09-30T04:19:02.304Z,415.08
2022-09-30T04:20:04.309Z,438.05
2022-09-30T04:21:07.036Z,474.67
2022-09-30T04:22:10.131Z,591.88
2022-09-30T04:23:11.531Z,549.05
2022-09-30T04:24:13.050Z,486.23
2022-09-30T04:25:14.592Z,536.58
2022-09-30T04:26:17.770Z,413.20
2022-09-30T04:27:19.184Z,510.70
2022-09-30T04:28:20.926Z,515.80
2022-09-30T04:29:22.545Z,498.38
2022-09-30T04:30:27.228Z,447.08
2022-09-30T04:31:30.580Z,481.90
2022-09-30T04:32:32.091Z,534.55
2022-09-30T04:33:33.640Z,570.65
2022-09-30T04:34:35.068Z,543.58
2022-09-30T04:35:36.708Z,473.90
2022-09-30T04:36:38.601Z,464.35
2022-09-30T04:37:43.456Z,453.85
2022-09-30T04:38:44.968Z,537.55
2022-09-30T04:39:46.733Z,465.88
2022-09-30T04:40:48.183Z,440.73
2022-09-30T04:41:49.657Z,428.75
2022-09-30T04:42:51.171Z,463.90
2022-09-30T04:43:52.661Z,468.27
2022-09-30T04:44:54.172Z,489.67
2022-09-30T04:45:55.885Z,419.48
2022-09-30T04:46:57.389Z,483.60
2022-09-30T04:47:58.845Z,460.60
2022-09-30T04:49:00.499Z,541.92
2022-09-30T04:50:02.012Z,397.33
2022-09-30T04:51:03.695Z,394.20
2022-09-30T04:52:05.124Z,583.63
2022-09-30T04:53:08.342Z,476.30
2022-09-30T04:54:09.784Z,460.55
2022-09-30T04:55:11.625Z,225.23
2022-09-30T04:56:13.254Z,561.15
2022-09-30T04:57:15.118Z,476.00
2022-09-30T04:58:16.585Z,549.30
2022-09-30T04:59:18.139Z,468.90
2022-09-30T05:00:19.692Z,491.10
2022-09-30T05:01:21.543Z,483.70
2022-09-30T05:02:23.091Z,476.98
2022-09-30T05:03:24.535Z,517.95
2022-09-30T05:04:26.004Z,422.42
2022-09-30T05:05:27.502Z,350.30
2022-09-30T05:06:28.949Z,401.42
2022-09-30T05:07:30.643Z,446.50
2022-09-30T05:08:33.969Z,351.85
2022-09-30T05:09:35.789Z,329.42
2022-09-30T05:10:37.295Z,347.02
2022-09-30T05:11:38.721Z,373.70
2022-09-30T05:12:40.347Z,475.92
2022-09-30T05:13:41.781Z,366.15
2022-09-30T05:14:43.247Z,345.95
2022-09-30T05:15:48.356Z,435.08
2022-09-30T05:16:49.791Z,460.40
2022-09-30T05:17:51.768Z,414.67
2022-09-30T05:18:53.598Z,363.50
2022-09-30T05:19:55.161Z,393.48
2022-09-30T05:20:57.767Z,388.70
2022-09-30T05:21:59.368Z,332.42
2022-09-30T05:23:00.829Z,302.70
2022-09-30T05:24:03.822Z,339.15
2022-09-30T05:25:06.172Z,501.60
2022-09-30T05:26:11.894Z,475.58
2022-09-30T05:27:13.824Z,334.65
2022-09-30T05:28:15.373Z,392.05
2022-09-30T05:29:16.832Z,447.85
2022-09-30T05:30:18.312Z,460.70
2022-09-30T05:31:19.907Z,274.33
2022-09-30T05:32:21.365Z,299.92
2022-09-30T05:33:22.796Z,493.92
2022-09-30T05:34:24.629Z,557.97
2022-09-30T05:35:26.068Z,523.67
2022-09-30T05:36:27.557Z,531.00
2022-09-30T05:37:29.180Z,495.70
2022-09-30T05:38:30.818Z,596.05
2022-09-30T05:39:33.571Z,510.08
2022-09-30T05:40:37.576Z,656.03
2022-09-30T05:41:39.039Z,677.33
2022-09-30T05:42:40.518Z,577.78
2022-09-30T05:43:43.638Z,561.25
2022-09-30T05:44:45.096Z,532.22
2022-09-30T05:45:52.235Z,477.73
2022-09-30T05:46:53.849Z,508.52
2022-09-30T05:47:55.699Z,474.83
2022-09-30T05:48:57.137Z,626.63
2022-09-30T05:49:59.078Z,558.30
2022-09-30T05:51:00.588Z,471.05
2022-09-30T05:52:02.051Z,554.42
2022-09-30T05:53:03.540Z,505.48
2022-09-30T05:54:04.992Z,477.52
2022-09-30T05:55:08.740Z,461.00
2022-09-30T05:56:10.778Z,508.73
2022-09-30T05:57:12.229Z,265.02
2022-09-30T05:58:13.905Z,386.13
2022-09-30T05:59:15.342Z,379.50
2022-09-30T06:00:17.730Z,363.38
2022-09-30T06:01:19.178Z,330.33
2022-09-30T06:02:20.794Z,523.40
2022-09-30T06:03:22.678Z,498.27
2022-09-30T06:04:24.110Z,468.38
2022-09-30T06:05:25.587Z,574.53
2022-09-30T06:06:27.095Z,667.15
2022-09-30T06:07:28.840Z,508.77
2022-09-30T06:08:30.345Z,563.75
2022-09-30T06:09:31.879Z,485.63
2022-09-30T06:10:35.721Z,668.90
2022-09-30T06:11:37.169Z,422.95
2022-09-30T06:12:39.057Z,629.35
2022-09-30T06:13:41.609Z,698.67
2022-09-30T06:14:43.156Z,689.28
2022-09-30T06:15:44.687Z,489.85
2022-09-30T06:16:46.210Z,388.98
2022-09-30T06:17:53.077Z,543.97
2022-09-30T06:18:54.550Z,626.78
2022-09-30T06:19:55.950Z,657.85
2022-09-30T06:20:58.208Z,713.28
2022-09-30T06:21:59.688Z,664.75
2022-09-30T06:23:01.742Z,577.42
2022-09-30T06:24:03.298Z,476.45
2022-09-30T06:25:05.757Z,462.48
2022-09-30T06:26:10.133Z,591.97
2022-09-30T06:27:12.223Z,600.40
2022-09-30T06:28:13.651Z,502.33
2022-09-30T06:29:15.104Z,541.60
2022-09-30T06:30:17.008Z,419.33
2022-09-30T06:31:18.604Z,511.67
2022-09-30T06:32:20.067Z,441.95
2022-09-30T06:33:22.309Z,469.85
2022-09-30T06:34:23.802Z,572.50
2022-09-30T06:35:25.298Z,536.13
2022-09-30T06:36:26.777Z,384.23
2022-09-30T06:37:28.452Z,532.03
2022-09-30T06:38:30.539Z,504.98
2022-09-30T06:39:31.957Z,566.15
2022-09-30T06:40:33.495Z,548.92
2022-09-30T06:41:36.381Z,605.10
2022-09-30T06:42:37.792Z,459.48
2022-09-30T06:43:49.779Z,481.23
2022-09-30T06:45:01.190Z,476.80
2022-09-30T06:46:14.810Z,503.80
2022-09-30T06:47:24.559Z,415.85
2022-09-30T06:48:36.671Z,406.48
2022-09-30T06:49:48.503Z,445.30
2022-09-30T06:51:00.918Z,514.70
2022-09-30T06:52:03.466Z,475.10
2022-09-30T06:53:07.440Z,440.85
2022-09-30T06:54:09.268Z,472.10
2022-09-30T06:55:10.864Z,518.65
2022-09-30T06:56:12.303Z,551.38
2022-09-30T06:57:15.100Z,550.40
2022-09-30T06:58:16.527Z,595.70
2022-09-30T06:59:18.010Z,477.10
2022-09-30T07:00:19.850Z,511.77
2022-09-30T07:01:21.378Z,457.15
2022-09-30T07:02:22.965Z,597.40
2022-09-30T07:03:27.171Z,497.77
2022-09-30T07:04:28.627Z,463.83
2022-09-30T07:05:30.073Z,586.72
2022-09-30T07:06:31.502Z,509.55
2022-09-30T07:07:32.993Z,501.20
2022-09-30T07:08:36.428Z,578.53
2022-09-30T07:09:37.940Z,553.88
2022-09-30T07:10:39.425Z,519.05
2022-09-30T07:11:40.882Z,469.05
2022-09-30T07:12:43.821Z,501.88
2022-09-30T07:13:46.106Z,515.42
2022-09-30T07:14:47.529Z,518.08
2022-09-30T07:15:49.026Z,444.15
2022-09-30T07:16:50.685Z,207.27
2022-09-30T07:17:52.286Z,670.45
2022-09-30T07:18:53.725Z,451.52
2022-09-30T07:19:55.451Z,441.65
2022-09-30T07:20:57.198Z,483.60
2022-09-30T07:21:58.681Z,324.80
2022-09-30T07:23:00.283Z,229.55
2022-09-30T07:24:02.022Z,321.10
2022-09-30T07:25:04.572Z,316.95
2022-09-30T07:26:06.074Z,636.33
2022-09-30T07:27:07.470Z,301.05
2022-09-30T07:28:10.242Z,382.20
2022-09-30T07:29:12.129Z,320.58
2022-09-30T07:30:21.529Z,242.25
2022-09-30T07:31:33.043Z,278.75
2022-09-30T07:32:36.396Z,441.77
2022-09-30T07:33:38.571Z,338.38
2022-09-30T07:34:40.230Z,327.63
2022-09-30T07:35:42.454Z,372.25
2022-09-30T07:36:43.893Z,481.50
2022-09-30T07:37:45.338Z,481.08
2022-09-30T07:38:47.207Z,365.25
2022-09-30T07:39:48.885Z,513.67
2022-09-30T07:40:55.392Z,401.08
2022-09-30T07:41:57.056Z,436.20
2022-09-30T07:42:58.512Z,412.60
2022-09-30T07:44:01.997Z,382.67
2022-09-30T07:45:04.025Z,388.08
2022-09-30T07:46:07.914Z,447.70
2022-09-30T07:47:10.517Z,475.15
2022-09-30T07:48:12.046Z,519.22
2022-09-30T07:49:16.016Z,453.52
2022-09-30T07:50:17.570Z,569.72
2022-09-30T07:51:22.193Z,563.67
2022-09-30T07:52:23.699Z,526.03
2022-09-30T07:53:25.167Z,495.50
2022-09-30T07:54:28.672Z,475.33
2022-09-30T07:55:30.111Z,564.80
2022-09-30T07:56:51.285Z,580.22
2022-09-30T07:57:53.630Z,541.80
2022-09-30T07:58:56.071Z,541.63
2022-09-30T08:00:04.976Z,675.65
2022-09-30T08:01:18.667Z,750.40
2022-09-30T08:02:20.220Z,508.27
2022-09-30T08:03:21.683Z,576.10
2022-09-30T08:04:24.535Z,649.30
2022-09-30T08:05:25.979Z,622.33
2022-09-30T08:06:29.868Z,540.40
2022-09-30T08:07:31.298Z,584.40
2022-09-30T08:08:32.842Z,519.33
2022-09-30T08:09:34.348Z,625.90
2022-09-30T08:10:36.317Z,533.55
2022-09-30T08:11:38.952Z,651.35
2022-09-30T08:12:40.379Z,543.38
2022-09-30T08:13:41.817Z,509.13
2022-09-30T08:14:43.477Z,487.08
2022-09-30T08:15:46.300Z,278.23
2022-09-30T08:16:47.796Z,685.92
2022-09-30T08:17:49.272Z,467.38
2022-09-30T08:18:54.024Z,425.58
2022-09-30T08:19:55.442Z,616.90
2022-09-30T08:20:57.450Z,500.95
2022-09-30T08:21:58.939Z,491.60
2022-09-30T08:23:00.489Z,524.05
2022-09-30T08:24:03.490Z,474.55
2022-09-30T08:25:05.959Z,511.60
2022-09-30T08:26:09.218Z,538.42
2022-09-30T08:27:10.745Z,480.90
2022-09-30T08:28:12.393Z,408.52
2022-09-30T08:29:20.319Z,442.33
2022-09-30T08:30:22.293Z,352.35
2022-09-30T08:31:25.173Z,365.60
2022-09-30T08:32:29.642Z,392.02
2022-09-30T08:33:31.614Z,408.40
2022-09-30T08:34:33.121Z,399.00
2022-09-30T08:35:34.801Z,365.27
2022-09-30T08:36:36.293Z,455.90
2022-09-30T08:37:37.777Z,525.33
2022-09-30T08:38:39.587Z,329.50
2022-09-30T08:39:41.011Z,489.15
2022-09-30T08:40:52.921Z,602.05
2022-09-30T08:43:54.232Z,327.20
2022-09-30T08:45:10.571Z,250.20
2022-09-30T08:46:22.261Z,370.77
2022-09-30T08:47:37.908Z,232.60
2022-09-30T08:48:54.010Z,394.85
2022-09-30T08:50:08.251Z,413.15
2022-09-30T08:51:28.722Z,607.97
2022-09-30T08:52:48.316Z,321.17
2022-09-30T08:53:51.093Z,488.10
2022-09-30T08:54:56.405Z,496.85
2022-09-30T08:55:58.874Z,618.63
2022-09-30T08:57:03.334Z,598.78
2022-09-30T08:58:06.130Z,602.75
2022-09-30T08:59:20.715Z,491.13
2022-09-30T09:00:22.790Z,698.50
2022-09-30T09:01:30.403Z,537.20
2022-09-30T09:02:38.883Z,742.75
2022-09-30T09:03:40.492Z,520.90
2022-09-30T09:04:42.477Z,523.08
2022-09-30T09:05:52.545Z,519.72
2022-09-30T09:07:03.483Z,537.72
2022-09-30T09:08:10.935Z,581.88
2022-09-30T09:09:29.168Z,236.27
2022-09-30T09:10:40.472Z,531.70
2022-09-30T09:11:58.883Z,582.78
2022-09-30T09:13:09.738Z,498.30
2022-09-30T09:14:24.899Z,510.92
2022-09-30T09:15:39.372Z,467.50
2022-09-30T09:16:48.932Z,399.33
2022-09-30T09:18:24.448Z,284.55
2022-09-30T09:19:35.845Z,462.70
2022-09-30T09:20:42.524Z,447.52
2022-09-30T09:21:52.024Z,528.85
2022-09-30T09:22:53.455Z,470.20
2022-09-30T09:24:00.615Z,384.50
2022-09-30T09:25:02.765Z,134.07
2022-09-30T09:26:04.892Z,558.22
2022-09-30T09:27:18.993Z,97.90
2022-09-30T09:28:31.417Z,308.63
2022-09-30T09:29:42.841Z,113.35
2022-09-30T09:30:56.111Z,511.58
2022-09-30T09:31:58.632Z,547.88
2022-09-30T09:33:15.431Z,477.05
2022-09-30T09:34:16.976Z,473.88
2022-09-30T09:35:31.884Z,228.07
2022-09-30T09:36:46.264Z,493.58
2022-09-30T09:37:56.432Z,56.42
2022-09-30T09:39:10.990Z,68.60
2022-09-30T09:40:19.135Z,74.43
2022-09-30T09:41:32.921Z,79.93
2022-09-30T09:43:01.799Z,60.38
2022-09-30T09:44:10.189Z,76.28
2022-09-30T09:45:20.076Z,47.42
2022-09-30T09:46:26.651Z,31.30
2022-09-30T09:47:28.170Z,22.10
2022-09-30T09:48:30.924Z,39.00
2022-09-30T09:49:34.645Z,44.50
2022-09-30T09:50:44.395Z,79.15
2022-09-30T09:51:48.267Z,52.85
2022-09-30T09:53:02.418Z,289.05
2022-09-30T09:54:09.323Z,292.77
2022-09-30T09:55:11.835Z,176.93
2022-09-30T09:56:16.892Z,64.82
2022-09-30T09:57:20.478Z,33.67
2022-09-30T09:58:21.877Z,45.78
2022-09-30T09:59:23.494Z,39.33
2022-09-30T10:00:25.785Z,28.77
2022-09-30T10:01:27.360Z,26.38
2022-09-30T10:02:30.874Z,22.42
2022-09-30T10:03:33.669Z,21.77
2022-09-30T10:04:47.625Z,20.98
2022-09-30T10:06:00.663Z,30.95
2022-09-30T10:07:12.896Z,24.85
2022-09-30T10:08:17.681Z,25.70
2022-09-30T10:09:25.282Z,21.98
2022-09-30T10:10:26.743Z,17.88
2022-09-30T10:11:28.280Z,20.70
2022-09-30T10:12:30.416Z,18.38
2022-09-30T10:13:40.742Z,16.45
2022-09-30T10:14:51.352Z,14.50
2022-09-30T10:15:54.967Z,12.95
2022-09-30T10:16:59.308Z,13.77
2022-09-30T10:18:00.841Z,13.25
2022-09-30T10:19:09.434Z,14.07
2022-09-30T10:20:22.817Z,16.90
2022-09-30T10:21:26.597Z,15.90
2022-09-30T10:22:29.687Z,17.50
2022-09-30T10:23:32.931Z,16.58
2022-09-30T10:24:36.633Z,19.05
2022-09-30T10:25:38.162Z,17.15
2022-09-30T10:26:47.791Z,18.00
2022-09-30T10:27:54.301Z,18.17
2022-09-30T10:28:57.830Z,15.40
2022-09-30T10:29:59.275Z,15.93
2022-09-30T10:31:03.938Z,13.60
2022-09-30T10:32:08.344Z,13.55
2022-09-30T10:33:19.224Z,12.15
2022-09-30T10:34:26.902Z,17.70
2022-09-30T10:35:28.449Z,14.75
2022-09-30T10:36:33.169Z,14.80
2022-09-30T10:37:34.617Z,19.48
2022-09-30T10:38:38.057Z,17.90
2022-09-30T10:39:42.799Z,19.58
2022-09-30T10:40:49.964Z,20.85
2022-09-30T10:41:59.506Z,19.02
2022-09-30T10:43:00.969Z,19.13
2022-09-30T10:44:05.032Z,19.08
2022-09-30T10:45:19.722Z,18.05
2022-09-30T10:46:27.692Z,16.38
2022-09-30T10:47:36.392Z,17.58
2022-09-30T10:48:40.430Z,20.25
2022-09-30T10:49:48.262Z,19.88
2022-09-30T10:50:51.136Z,16.90
2022-09-30T10:51:52.928Z,23.63
2022-09-30T10:52:56.875Z,20.10
2022-09-30T10:53:58.313Z,18.58
2022-09-30T10:55:09.090Z,20.48
2022-09-30T10:56:32.523Z,23.15
2022-09-30T10:57:36.093Z,25.02
2022-09-30T10:58:51.355Z,30.02
2022-09-30T10:59:58.015Z,25.75
2022-09-30T11:01:06.191Z,14.68
2022-09-30T11:02:23.671Z,20.48
2022-09-30T11:03:32.311Z,26.15
2022-09-30T11:04:39.201Z,25.20
2022-09-30T11:05:44.286Z,26.35
2022-09-30T11:06:47.435Z,26.02
2022-09-30T11:07:56.146Z,28.45
2022-09-30T11:09:03.409Z,29.35
2022-09-30T11:10:11.971Z,34.50
2022-09-30T11:11:18.127Z,38.75
2022-09-30T11:12:27.802Z,52.53
2022-09-30T11:13:39.887Z,34.55
2022-09-30T11:14:46.080Z,30.90
2022-09-30T11:16:01.258Z,30.30
2022-09-30T11:17:18.050Z,32.10
2022-09-30T11:18:29.436Z,29.95
2022-09-30T11:19:35.896Z,29.00
2022-09-30T11:20:41.326Z,29.23
2022-09-30T11:21:48.965Z,28.85
2022-09-30T11:22:56.883Z,31.27
2022-09-30T11:24:03.826Z,31.40
2022-09-30T11:25:10.927Z,40.35
2022-09-30T11:26:25.589Z,30.90
2022-09-30T11:27:39.099Z,31.88
2022-09-30T11:28:58.776Z,26.52
2022-09-30T11:30:07.860Z,22.77
2022-09-30T11:31:20.617Z,29.65
2022-09-30T11:32:39.344Z,28.83
2022-09-30T11:33:55.615Z,29.63
2022-09-30T11:35:11.645Z,32.40
2022-09-30T11:36:23.648Z,42.45
2022-09-30T11:37:39.822Z,32.75
2022-09-30T11:39:17.393Z,35.05
2022-09-30T11:40:30.928Z,35.72
2022-09-30T11:41:36.806Z,33.45
2022-09-30T11:42:46.934Z,32.42
2022-09-30T11:43:57.829Z,34.13
2022-09-30T11:45:07.923Z,30.38
2022-09-30T11:46:22.431Z,31.45
2022-09-30T11:47:44.186Z,31.58
2022-09-30T11:50:14.231Z,28.02
2022-09-30T11:51:22.209Z,27.92
2022-09-30T11:52:32.798Z,29.17
2022-09-30T11:53:47.642Z,29.95
2022-09-30T11:55:06.035Z,27.00
2022-09-30T11:56:22.666Z,25.50
2022-09-30T11:57:32.278Z,28.70
2022-09-30T11:58:41.994Z,25.55
2022-09-30T11:59:49.093Z,26.90
2022-09-30T12:00:55.810Z,26.17
2022-09-30T12:01:59.845Z,24.92
2022-09-30T12:03:10.128Z,27.02
2022-09-30T12:04:16.649Z,26.93
2022-09-30T12:05:20.517Z,30.83
2022-09-30T12:06:28.613Z,28.25
2022-09-30T12:07:39.082Z,28.30
2022-09-30T12:08:46.494Z,26.90
2022-09-30T12:09:53.365Z,27.00
2022-09-30T12:10:59.604Z,29.25
2022-09-30T12:12:04.951Z,29.98
2022-09-30T12:13:12.055Z,27.27
2022-09-30T12:14:19.336Z,33.13
2022-09-30T12:15:23.210Z,28.58
2022-09-30T12:16:27.464Z,26.85
2022-09-30T12:17:34.484Z,33.08
2022-09-30T12:18:39.354Z,31.65
2022-09-30T12:19:46.613Z,26.15
2022-09-30T12:20:52.455Z,29.30
2022-09-30T12:22:00.170Z,26.45
2022-09-30T12:23:16.311Z,27.60
2022-09-30T12:24:24.611Z,25.95
2022-09-30T12:25:31.313Z,27.42
2022-09-30T12:26:33.547Z,26.70
2022-09-30T12:27:41.001Z,25.88
2022-09-30T12:28:49.377Z,29.05
2022-09-30T12:29:58.937Z,26.65
2022-09-30T12:31:10.074Z,29.30
2022-09-30T12:32:55.321Z,25.60
2022-09-30T12:34:11.987Z,27.90
2022-09-30T12:35:30.384Z,26.92
2022-09-30T12:36:48.125Z,28.77
2022-09-30T12:38:06.640Z,29.77
2022-09-30T12:39:44.169Z,29.77
2022-09-30T12:41:06.179Z,29.65
2022-09-30T12:42:26.515Z,26.42
2022-09-30T12:43:50.285Z,27.63
2022-09-30T12:45:34.297Z,26.75
2022-09-30T12:46:56.009Z,27.40
2022-09-30T12:47:59.701Z,27.20
2022-09-30T12:49:04.646Z,27.08
2022-09-30T12:50:08.849Z,28.55
2022-09-30T12:51:20.535Z,24.00
2022-09-30T12:52:22.614Z,27.15
2022-09-30T12:53:28.027Z,29.13
2022-09-30T12:54:35.015Z,26.17
2022-09-30T12:55:39.913Z,28.52
2022-09-30T12:56:43.733Z,24.88
2022-09-30T12:57:48.142Z,26.35
2022-09-30T12:58:52.044Z,24.45
2022-09-30T12:59:56.586Z,29.70
2022-09-30T13:01:01.662Z,24.80
2022-09-30T13:02:05.339Z,28.05
2022-09-30T13:03:08.930Z,23.77
2022-09-30T13:04:17.313Z,22.80
2022-09-30T13:05:47.072Z,27.67
2022-09-30T13:07:11.785Z,23.17
2022-09-30T13:08:42.055Z,24.58
2022-09-30T13:10:00.238Z,24.20
2022-09-30T13:11:05.855Z,24.90
2022-09-30T13:12:25.783Z,26.92
2022-09-30T13:13:28.975Z,22.67
2022-09-30T13:14:32.539Z,23.75
2022-09-30T13:15:41.573Z,26.55
2022-09-30T13:17:07.901Z,26.88
2022-09-30T13:18:46.862Z,25.23
2022-09-30T13:19:49.754Z,24.77
2022-09-30T13:20:52.979Z,26.65
2022-09-30T13:22:34.647Z,24.85
2022-09-30T13:23:36.759Z,26.52
2022-09-30T13:25:10.686Z,26.83
2022-09-30T13:26:53.036Z,24.02
2022-09-30T13:29:37.197Z,25.25
2022-09-30T13:30:39.914Z,22.98
2022-09-30T13:32:03.480Z,24.42
2022-09-30T13:33:21.155Z,24.85
2022-09-30T13:34:24.279Z,23.05
2022-09-30T13:35:31.722Z,24.63
2022-09-30T13:36:39.753Z,25.15
2022-09-30T13:37:41.290Z,25.35
2022-09-30T13:38:42.808Z,24.35
2022-09-30T13:39:47.431Z,25.73
2022-09-30T13:41:02.941Z,27.90
2022-09-30T13:42:14.565Z,25.45
2022-09-30T13:43:20.192Z,24.70
2022-09-30T13:44:28.720Z,23.98
2022-09-30T13:45:33.895Z,23.25
2022-09-30T13:46:40.606Z,22.52
2022-09-30T13:47:44.491Z,26.27
2022-09-30T13:48:51.797Z,24.25
2022-09-30T13:49:59.590Z,21.60
2022-09-30T13:51:06.861Z,24.98
2022-09-30T13:52:16.518Z,23.65
2022-09-30T13:53:27.453Z,23.15
2022-09-30T13:54:32.912Z,22.02
2022-09-30T13:55:39.512Z,23.67
2022-09-30T13:56:43.616Z,25.63
2022-09-30T13:57:55.024Z,22.95
2022-09-30T13:59:17.062Z,26.00
2022-09-30T14:00:20.772Z,24.80
2022-09-30T14:01:35.462Z,22.95
2022-09-30T14:03:06.419Z,21.35
2022-09-30T14:04:31.552Z,24.55
2022-09-30T14:05:43.289Z,22.52